createdAt,value
2019-04-28T00:00:53.045Z,9.65
2019-04-28T00:03:22.005Z,12.73
2019-04-28T00:05:51.387Z,17.40
2019-04-28T00:08:20.847Z,9.08
2019-04-28T00:10:49.377Z,15.48
2019-04-28T00:13:17.797Z,14.30
2019-04-28T00:15:46.201Z,13.53
2019-04-28T00:18:14.615Z,16.50
2019-04-28T00:20:50.950Z,15.00
2019-04-28T00:23:26.669Z,13.05
2019-04-28T00:26:05.626Z,14.00
2019-04-28T00:28:34.046Z,14.45
2019-04-28T00:31:02.579Z,15.13
2019-04-28T00:33:31.401Z,13.70
2019-04-28T00:36:01.527Z,11.80
2019-04-28T00:38:31.635Z,13.70
2019-04-28T00:41:02.285Z,11.55
2019-04-28T00:43:31.794Z,12.67
2019-04-28T00:46:01.027Z,15.98
2019-04-28T00:48:30.901Z,17.73
2019-04-28T00:51:01.668Z,13.90
2019-04-28T00:53:31.046Z,15.72
2019-04-28T00:55:59.583Z,12.65
2019-04-28T00:58:27.995Z,9.33
2019-04-28T01:00:58.037Z,16.80
2019-04-28T01:03:26.535Z,15.28
2019-04-28T01:05:54.938Z,10.35
2019-04-28T01:08:23.353Z,13.70
2019-04-28T01:10:51.753Z,12.28
2019-04-28T01:13:21.468Z,11.40
2019-04-28T01:16:04.810Z,12.40
2019-04-28T01:18:34.872Z,16.70
2019-04-28T01:21:03.339Z,12.90
2019-04-28T01:23:31.747Z,10.32
2019-04-28T01:26:00.152Z,15.85
2019-04-28T01:28:29.742Z,16.23
2019-04-28T01:31:14.797Z,13.27
2019-04-28T01:34:01.684Z,15.98
2019-04-28T01:36:31.553Z,14.93
2019-04-28T01:39:00.034Z,13.70
2019-04-28T01:41:29.671Z,14.78
2019-04-28T01:44:00.078Z,14.95
2019-04-28T01:46:29.811Z,14.00
2019-04-28T01:48:59.911Z,13.18
2019-04-28T01:54:00.190Z,11.35
2019-04-28T01:56:30.426Z,11.30
2019-04-28T01:59:00.263Z,11.70
2019-04-28T02:01:30.192Z,11.93
2019-04-28T02:04:00.236Z,13.05
2019-04-28T02:06:29.962Z,17.00
2019-04-28T02:09:00.707Z,16.20
2019-04-28T02:11:29.573Z,14.30
2019-04-28T02:13:59.717Z,13.15
2019-04-28T02:16:29.607Z,11.65
2019-04-28T02:18:59.770Z,13.95
2019-04-28T02:21:41.945Z,14.68
2019-04-28T02:24:30.766Z,9.93
2019-04-28T02:27:00.815Z,15.50
2019-04-28T02:29:30.293Z,14.20
2019-04-28T02:32:02.241Z,17.50
2019-04-28T02:34:31.141Z,14.33
2019-04-28T02:37:01.362Z,13.13
2019-04-28T02:39:31.218Z,14.75
2019-04-28T02:42:01.466Z,15.83
2019-04-28T02:44:34.074Z,15.10
2019-04-28T02:47:01.017Z,15.15
2019-04-28T02:49:31.330Z,16.10
2019-04-28T02:52:04.310Z,11.28
2019-04-28T02:54:32.729Z,10.82
2019-04-28T02:57:01.449Z,14.03
2019-04-28T02:59:30.507Z,12.70
2019-04-28T03:02:00.674Z,13.88
2019-04-28T03:04:30.753Z,17.10
2019-04-28T03:07:01.374Z,14.10
2019-04-28T03:09:30.700Z,15.50
2019-04-28T03:12:01.477Z,10.03
2019-04-28T03:14:30.441Z,14.00
2019-04-28T03:17:00.843Z,11.22
2019-04-28T03:19:31.046Z,14.47
2019-04-28T03:22:01.330Z,16.70
2019-04-28T03:24:31.563Z,14.58
2019-04-28T03:27:10.898Z,13.10
2019-04-28T03:29:44.326Z,12.70
2019-04-28T03:32:30.494Z,15.08
2019-04-28T03:37:13.780Z,21.52
2019-04-28T03:39:42.440Z,10.72
2019-04-28T03:42:11.674Z,15.68
2019-04-28T03:44:41.477Z,15.33
2019-04-28T03:47:10.711Z,12.85
2019-04-28T03:49:42.715Z,15.25
2019-04-28T03:52:10.806Z,14.23
2019-04-28T03:54:41.018Z,16.67
2019-04-28T03:57:11.299Z,11.57
2019-04-28T03:59:43.105Z,10.77
2019-04-28T04:02:11.314Z,16.97
2019-04-28T04:04:41.420Z,11.93
2019-04-28T04:07:11.147Z,13.70
2019-04-28T04:09:53.468Z,17.35
2019-04-28T04:12:30.938Z,10.85
2019-04-28T04:15:04.196Z,15.28
2019-04-28T04:17:34.446Z,15.58
2019-04-28T04:20:03.137Z,13.88
2019-04-28T04:22:31.622Z,11.93
2019-04-28T04:25:01.271Z,14.65
2019-04-28T04:27:30.909Z,13.05
2019-04-28T04:30:01.619Z,18.05
2019-04-28T04:32:30.521Z,14.78
2019-04-28T04:35:00.732Z,15.63
2019-04-28T04:37:30.795Z,13.45
2019-04-28T04:40:01.205Z,14.18
2019-04-28T04:42:30.677Z,13.83
2019-04-28T04:45:00.521Z,13.15
2019-04-28T04:47:32.457Z,12.47
2019-04-28T04:50:00.216Z,10.78
2019-04-28T04:52:30.433Z,11.83
2019-04-28T04:55:01.297Z,11.22
2019-04-28T04:57:32.235Z,9.15
2019-04-28T05:00:00.156Z,13.20
2019-04-28T05:02:36.118Z,11.73
2019-04-28T05:05:07.501Z,12.78
2019-04-28T05:07:36.694Z,15.40
2019-04-28T05:10:06.810Z,11.43
2019-04-28T05:12:35.223Z,12.05
2019-04-28T05:15:04.762Z,15.93
2019-04-28T05:17:33.193Z,14.13
2019-04-28T05:20:01.592Z,9.50
2019-04-28T05:22:31.642Z,11.95
2019-04-28T05:25:04.486Z,11.90
2019-04-28T05:27:32.902Z,10.80
2019-04-28T05:30:04.366Z,10.55
2019-04-28T05:32:42.408Z,10.53
2019-04-28T05:35:01.651Z,10.40
2019-04-28T05:37:30.063Z,8.55
2019-04-28T05:40:00.806Z,14.70
2019-04-28T05:42:30.213Z,12.90
2019-04-28T05:44:59.927Z,10.15
2019-04-28T05:47:30.436Z,12.80
2019-04-28T05:50:03.464Z,9.10
2019-04-28T05:52:50.627Z,13.55
2019-04-28T05:55:23.382Z,9.23
2019-04-28T05:57:56.438Z,17.32
2019-04-28T06:00:29.814Z,13.22
2019-04-28T06:03:12.564Z,14.15
2019-04-28T06:05:40.960Z,10.70
2019-04-28T06:08:13.691Z,14.60
2019-04-28T06:10:42.121Z,13.53
2019-04-28T06:13:11.454Z,13.25
2019-04-28T06:15:39.874Z,14.58
2019-04-28T06:18:10.321Z,11.78
2019-04-28T06:20:40.523Z,12.18
2019-04-28T06:23:08.893Z,8.87
2019-04-28T06:25:37.299Z,12.55
2019-04-28T06:28:05.723Z,10.05
2019-04-28T06:30:34.135Z,9.83
2019-04-28T06:33:08.139Z,17.67
2019-04-28T06:35:32.759Z,13.00
2019-04-28T06:38:01.179Z,14.05
2019-04-28T06:40:29.577Z,10.38
2019-04-28T06:42:58.021Z,7.65
2019-04-28T06:45:26.437Z,11.45
2019-04-28T06:47:54.856Z,8.45
2019-04-28T06:50:23.244Z,10.00
2019-04-28T06:52:51.671Z,12.55
2019-04-28T06:55:23.230Z,8.75
2019-04-28T06:57:51.649Z,9.60
2019-04-28T07:00:20.061Z,12.30
2019-04-28T07:02:48.490Z,10.45
2019-04-28T07:05:17.587Z,11.00
2019-04-28T07:07:46.002Z,7.67
2019-04-28T07:10:14.487Z,11.38
2019-04-28T07:12:42.906Z,8.28
2019-04-28T07:15:11.419Z,10.07
2019-04-28T07:17:40.609Z,9.38
2019-04-28T07:20:10.729Z,6.65
2019-04-28T07:22:39.138Z,8.20
2019-04-28T07:25:07.560Z,5.77
2019-04-28T07:27:35.999Z,8.25
2019-04-28T07:30:06.844Z,8.38
2019-04-28T07:32:35.394Z,8.37
2019-04-28T07:35:05.026Z,6.40
2019-04-28T07:37:34.325Z,6.15
2019-04-28T07:40:03.014Z,6.90
2019-04-28T07:42:31.414Z,8.08
2019-04-28T07:44:59.833Z,7.72
2019-04-28T07:47:28.513Z,7.85
2019-04-28T07:49:56.985Z,7.30
2019-04-28T07:52:27.031Z,7.30
2019-04-28T07:54:55.456Z,7.22
2019-04-28T07:57:24.154Z,6.65
2019-04-28T07:59:52.636Z,5.42
2019-04-28T08:02:21.026Z,6.75
2019-04-28T08:04:49.438Z,5.65
2019-04-28T08:07:17.841Z,7.53
2019-04-28T08:09:46.254Z,5.72
2019-04-28T08:12:14.660Z,8.00
2019-04-28T08:14:43.082Z,5.07
2019-04-28T08:17:11.486Z,4.78
2019-04-28T08:19:39.898Z,6.33
2019-04-28T08:22:08.302Z,5.08
2019-04-28T08:24:36.710Z,6.50
2019-04-28T08:27:05.284Z,5.20
2019-04-28T08:29:33.694Z,4.70
2019-04-28T08:32:10.294Z,3.60
2019-04-28T08:34:38.729Z,6.30
2019-04-28T08:37:07.406Z,2.70
2019-04-28T08:39:35.817Z,4.47
2019-04-28T08:42:04.377Z,7.00
2019-04-28T08:44:32.817Z,6.28
2019-04-28T08:47:01.343Z,3.65
2019-04-28T08:49:29.752Z,4.62
2019-04-28T08:51:58.186Z,5.62
2019-04-28T08:54:26.599Z,6.25
2019-04-28T08:56:55.057Z,5.85
2019-04-28T08:59:23.458Z,3.27
2019-04-28T09:01:51.953Z,2.95
2019-04-28T09:04:20.340Z,6.05
2019-04-28T09:06:48.745Z,5.47
2019-04-28T09:09:18.729Z,4.35
2019-04-28T09:11:47.133Z,3.52
2019-04-28T09:14:15.549Z,4.75
2019-04-28T09:16:43.968Z,4.95
2019-04-28T09:19:12.372Z,3.58
2019-04-28T09:21:40.786Z,3.42
2019-04-28T09:24:09.188Z,5.25
2019-04-28T09:26:37.618Z,2.33
2019-04-28T09:29:06.087Z,6.15
2019-04-28T09:31:34.505Z,4.75
2019-04-28T09:34:02.925Z,4.40
2019-04-28T09:36:31.406Z,2.92
2019-04-28T09:38:59.814Z,4.35
2019-04-28T09:41:28.704Z,4.53
2019-04-28T09:44:07.537Z,2.57
2019-04-28T09:46:43.343Z,4.10
2019-04-28T09:49:11.738Z,3.90
2019-04-28T09:51:40.149Z,3.90
2019-04-28T09:54:08.727Z,3.47
2019-04-28T09:56:37.131Z,3.70
2019-04-28T09:59:05.533Z,2.37
2019-04-28T10:01:33.937Z,3.30
2019-04-28T10:04:02.345Z,4.37
2019-04-28T10:06:30.769Z,4.35
2019-04-28T10:08:59.218Z,2.30
2019-04-28T10:11:30.609Z,2.27
2019-04-28T10:13:57.792Z,2.10
2019-04-28T10:16:26.183Z,2.40
2019-04-28T10:18:54.593Z,3.10
2019-04-28T10:21:23.247Z,4.50
2019-04-28T10:23:51.661Z,2.22
2019-04-28T10:26:20.066Z,4.17
2019-04-28T10:28:48.482Z,4.37
2019-04-28T10:31:17.683Z,2.98
2019-04-28T10:33:47.736Z,2.05
2019-04-28T10:36:16.135Z,2.07
2019-04-28T10:38:46.486Z,1.65
2019-04-28T10:41:16.527Z,2.10
2019-04-28T10:43:44.974Z,5.40
2019-04-28T10:46:13.519Z,2.05
2019-04-28T10:48:41.996Z,3.50
2019-04-28T10:51:10.394Z,3.52
2019-04-28T10:53:39.110Z,1.25
2019-04-28T10:56:07.515Z,2.25
2019-04-28T10:58:35.922Z,2.35
2019-04-28T11:01:04.712Z,3.58
2019-04-28T11:03:33.112Z,1.70
2019-04-28T11:06:01.574Z,2.13
2019-04-28T11:08:37.375Z,2.25
2019-04-28T11:11:07.419Z,4.20
2019-04-28T11:13:35.830Z,1.03
2019-04-28T11:16:04.234Z,1.12
2019-04-28T11:18:32.714Z,1.30
2019-04-28T11:21:01.122Z,2.15
2019-04-28T11:23:29.515Z,1.67
2019-04-28T11:25:57.921Z,2.17
2019-04-28T11:28:26.326Z,1.95
2019-04-28T11:30:54.739Z,1.07
2019-04-28T11:33:33.943Z,1.17
2019-04-28T11:36:02.370Z,1.15
2019-04-28T11:38:30.787Z,1.92
2019-04-28T11:40:59.272Z,2.30
2019-04-28T11:43:27.778Z,1.03
2019-04-28T11:45:56.197Z,1.57
2019-04-28T11:48:24.935Z,1.00
2019-04-28T11:50:53.350Z,0.45
2019-04-28T11:53:21.927Z,0.75
2019-04-28T11:55:50.323Z,0.70
2019-04-28T11:58:18.726Z,0.90
2019-04-28T12:00:47.342Z,0.98
2019-04-28T12:03:15.763Z,1.80
2019-04-28T12:05:47.773Z,1.22
2019-04-28T12:08:16.206Z,2.20
2019-04-28T12:10:52.093Z,0.70
2019-04-28T12:13:25.167Z,0.68
2019-04-28T12:15:58.466Z,3.02
2019-04-28T12:18:44.801Z,0.62
2019-04-28T12:21:13.220Z,0.62
2019-04-28T12:23:41.627Z,0.53
2019-04-28T12:26:10.019Z,0.82
2019-04-28T12:28:38.437Z,0.70
2019-04-28T12:31:07.000Z,0.70
2019-04-28T12:33:35.401Z,1.27
2019-04-28T12:36:05.139Z,0.68
2019-04-28T12:38:33.777Z,0.60
2019-04-28T12:41:02.186Z,0.55
2019-04-28T12:43:30.917Z,0.47
2019-04-28T12:45:59.463Z,0.30
2019-04-28T12:48:27.877Z,0.33
2019-04-28T12:50:56.282Z,0.67
2019-04-28T12:53:24.754Z,0.65
2019-04-28T12:55:53.153Z,0.53
2019-04-28T12:58:21.577Z,1.07
2019-04-28T13:01:00.284Z,0.60
2019-04-28T13:03:36.162Z,1.60
2019-04-28T13:06:06.231Z,0.93
2019-04-28T13:08:34.686Z,1.35
2019-04-28T13:11:03.093Z,0.65
2019-04-28T13:13:31.511Z,0.40
2019-04-28T13:16:00.205Z,1.05
2019-04-28T13:18:28.601Z,0.40
2019-04-28T13:20:59.058Z,0.40
2019-04-28T13:23:27.223Z,0.60
2019-04-28T13:25:55.626Z,0.80
2019-04-28T13:28:24.052Z,0.50
2019-04-28T13:30:52.450Z,0.40
2019-04-28T13:33:20.867Z,0.90
2019-04-28T13:35:49.264Z,0.33
2019-04-28T13:38:17.672Z,0.95
2019-04-28T13:40:46.991Z,0.72
2019-04-28T13:43:15.395Z,1.12
2019-04-28T13:45:43.872Z,0.45
2019-04-28T13:48:12.297Z,0.50
2019-04-28T13:50:40.777Z,0.93
2019-04-28T13:53:09.664Z,1.55
2019-04-28T13:55:48.827Z,0.60
2019-04-28T13:58:24.649Z,0.40
2019-04-28T14:01:11.158Z,0.47
2019-04-28T14:03:41.218Z,0.40
2019-04-28T14:06:27.197Z,0.50
2019-04-28T14:08:44.416Z,0.40
2019-04-28T14:11:12.932Z,0.85
2019-04-28T14:13:41.317Z,0.40
2019-04-28T14:16:09.723Z,1.23
2019-04-28T14:18:38.150Z,0.65
2019-04-28T14:21:08.006Z,0.60
2019-04-28T14:23:36.658Z,0.50
2019-04-28T14:26:05.054Z,1.25
2019-04-28T14:28:33.523Z,0.50
2019-04-28T14:31:02.006Z,1.25
2019-04-28T14:33:30.418Z,2.25
2019-04-28T14:35:59.249Z,2.40
2019-04-28T14:38:27.751Z,1.87
2019-04-28T14:40:56.247Z,0.75
2019-04-28T14:43:24.646Z,1.70
2019-04-28T14:45:53.147Z,0.60
2019-04-28T14:48:21.615Z,1.00
2019-04-28T14:50:50.132Z,2.65
2019-04-28T14:53:18.552Z,2.20
2019-04-28T14:55:47.036Z,1.12
2019-04-28T14:58:15.432Z,1.22
2019-04-28T15:00:54.365Z,0.50
2019-04-28T15:03:24.427Z,0.68
2019-04-28T15:05:54.513Z,2.27
2019-04-28T15:08:27.601Z,0.62
2019-04-28T15:11:00.517Z,0.40
2019-04-28T15:13:28.935Z,0.40
2019-04-28T15:15:57.375Z,0.23
2019-04-28T15:18:25.851Z,0.75
2019-04-28T15:20:54.474Z,0.60
2019-04-28T15:23:23.016Z,0.47
2019-04-28T15:25:51.615Z,1.20
2019-04-28T15:28:20.075Z,0.40
2019-04-28T15:30:48.490Z,0.47
2019-04-28T15:33:17.003Z,0.70
2019-04-28T15:35:45.482Z,0.40
2019-04-28T15:38:13.957Z,0.50
2019-04-28T15:40:42.386Z,0.40
2019-04-28T15:43:11.703Z,0.47
2019-04-28T15:45:40.128Z,0.47
2019-04-28T15:48:08.550Z,0.20
2019-04-28T15:50:37.100Z,0.45
2019-04-28T15:53:05.509Z,1.50
2019-04-28T15:55:42.250Z,0.82
2019-04-28T15:58:29.343Z,0.80
2019-04-28T16:00:57.824Z,0.40
2019-04-28T16:03:26.299Z,0.20
2019-04-28T16:05:54.819Z,0.28
2019-04-28T16:08:23.295Z,0.30
2019-04-28T16:10:51.760Z,0.20
2019-04-28T16:13:20.225Z,0.30
2019-04-28T16:15:48.718Z,0.85
2019-04-28T16:18:18.040Z,2.10
2019-04-28T16:20:46.513Z,0.45
2019-04-28T16:23:15.033Z,0.30
2019-04-28T16:25:43.515Z,0.60
2019-04-28T16:28:12.190Z,0.68
2019-04-28T16:30:40.590Z,1.35
2019-04-28T16:33:09.040Z,0.95
2019-04-28T16:35:37.452Z,0.90
2019-04-28T16:38:06.093Z,0.95
2019-04-28T16:40:34.503Z,0.30
2019-04-28T16:43:02.918Z,1.27
2019-04-28T16:45:31.316Z,0.40
2019-04-28T16:47:59.725Z,0.40
2019-04-28T16:50:28.121Z,0.50
2019-04-28T16:52:56.599Z,0.90
2019-04-28T16:55:27.241Z,1.60
2019-04-28T16:57:57.294Z,0.82
2019-04-28T17:00:43.245Z,0.60
2019-04-28T17:03:11.719Z,0.60
2019-04-28T17:05:40.117Z,1.07
2019-04-28T17:08:08.527Z,0.82
2019-04-28T17:10:36.938Z,0.80
2019-04-28T17:13:05.597Z,0.62
2019-04-28T17:15:36.110Z,0.62
2019-04-28T17:18:04.626Z,1.00
2019-04-28T17:20:33.037Z,1.77
2019-04-28T17:23:01.461Z,0.82
2019-04-28T17:25:29.896Z,0.90
2019-04-28T17:27:58.330Z,0.75
2019-04-28T17:30:27.912Z,0.80
2019-04-28T17:32:56.329Z,0.85
2019-04-28T17:35:24.727Z,1.00
2019-04-28T17:38:05.808Z,1.82
2019-04-28T17:40:23.418Z,0.95
2019-04-28T17:42:51.812Z,0.98
2019-04-28T17:45:20.502Z,1.65
2019-04-28T17:47:50.080Z,1.62
2019-04-28T17:50:19.854Z,0.93
2019-04-28T17:52:48.245Z,2.00
2019-04-28T17:55:16.687Z,1.12
2019-04-28T17:57:45.085Z,2.67
2019-04-28T18:00:19.410Z,0.80
2019-04-28T18:02:49.459Z,1.40
2019-04-28T18:05:19.516Z,1.67
2019-04-28T18:07:48.319Z,2.32
2019-04-28T18:10:16.790Z,1.65
2019-04-28T18:12:45.543Z,2.45
2019-04-28T18:15:32.043Z,1.42
2019-04-28T18:18:14.364Z,0.95
2019-04-28T18:20:42.879Z,2.33
2019-04-28T18:23:12.205Z,1.10
2019-04-28T18:25:40.649Z,2.00
2019-04-28T18:28:09.131Z,1.00
2019-04-28T18:30:39.463Z,1.00
2019-04-28T18:33:18.795Z,1.20
2019-04-28T18:35:51.315Z,2.22
2019-04-28T18:38:33.992Z,1.12
2019-04-28T18:41:09.231Z,1.40
2019-04-28T18:43:45.235Z,2.25
2019-04-28T18:46:16.867Z,1.25
2019-04-28T18:48:45.541Z,1.22
2019-04-28T18:51:14.028Z,1.55
2019-04-28T18:54:01.869Z,1.30
2019-04-28T18:56:30.294Z,3.22
2019-04-28T18:58:58.749Z,2.55
2019-04-28T19:01:40.953Z,6.97
2019-04-28T19:04:09.392Z,7.50
2019-04-28T19:06:37.861Z,7.10
2019-04-28T19:09:26.855Z,4.38
2019-04-28T19:12:09.309Z,3.98
2019-04-28T19:14:42.147Z,4.65
2019-04-28T19:17:12.198Z,4.78
2019-04-28T19:19:42.142Z,4.87
2019-04-28T19:22:10.575Z,3.67
2019-04-28T19:24:38.956Z,2.77
2019-04-28T19:27:07.372Z,1.30
2019-04-28T19:29:35.778Z,1.62
2019-04-28T19:32:04.195Z,2.35
2019-04-28T19:34:32.757Z,4.22
2019-04-28T19:37:01.247Z,1.30
2019-04-28T19:39:29.680Z,1.25
2019-04-28T19:41:58.090Z,1.12
2019-04-28T19:44:26.569Z,1.87
2019-04-28T19:46:54.974Z,1.30
2019-04-28T19:49:23.469Z,3.55
2019-04-28T19:51:51.872Z,2.67
2019-04-28T19:54:22.936Z,7.08
2019-04-28T19:57:09.223Z,5.55
2019-04-28T19:59:55.551Z,3.70
2019-04-28T20:02:24.841Z,5.17
2019-04-28T20:04:53.243Z,4.25
2019-04-28T20:07:21.749Z,3.95
2019-04-28T20:09:50.186Z,5.25
2019-04-28T20:12:18.612Z,3.55
2019-04-28T20:14:47.034Z,2.60
2019-04-28T20:17:15.440Z,4.58
2019-04-28T20:19:44.202Z,2.83
2019-04-28T20:22:13.183Z,1.80
2019-04-28T20:24:47.185Z,1.98
2019-04-28T20:27:12.259Z,2.40
2019-04-28T20:29:41.007Z,2.45
2019-04-28T20:32:09.416Z,2.52
2019-04-28T20:34:37.839Z,3.22
2019-04-28T20:37:07.891Z,4.42
2019-04-28T20:39:36.387Z,2.77
2019-04-28T20:42:23.333Z,3.67
2019-04-28T20:44:51.742Z,3.45
2019-04-28T20:47:20.236Z,3.80
2019-04-28T20:49:48.663Z,4.30
2019-04-28T20:52:17.305Z,4.55
2019-04-28T20:54:45.727Z,4.97
2019-04-28T20:57:14.126Z,5.75
2019-04-28T20:59:42.537Z,5.58
2019-04-28T21:02:10.931Z,4.53
2019-04-28T21:04:39.334Z,4.95
2019-04-28T21:07:07.764Z,5.42
2019-04-28T21:09:36.180Z,5.65
2019-04-28T21:12:04.572Z,3.47
2019-04-28T21:14:33.051Z,3.05
2019-04-28T21:17:01.457Z,3.08
2019-04-28T21:19:29.936Z,3.35
2019-04-28T21:21:59.061Z,3.85
2019-04-28T21:24:27.469Z,2.80
2019-04-28T21:26:55.878Z,4.30
2019-04-28T21:29:24.274Z,3.40
2019-04-28T21:31:52.671Z,2.33
2019-04-28T21:34:22.271Z,3.95
2019-04-28T21:36:50.670Z,2.62
2019-04-28T21:39:19.073Z,2.50
2019-04-28T21:41:47.478Z,2.70
2019-04-28T21:44:17.927Z,4.30
2019-04-28T21:46:47.985Z,2.25
2019-04-28T21:49:24.265Z,3.47
2019-04-28T21:51:52.730Z,2.90
2019-04-28T21:54:21.367Z,2.47
2019-04-28T21:56:49.804Z,5.55
2019-04-28T21:59:18.202Z,2.10
2019-04-28T22:01:46.634Z,2.52
2019-04-28T22:04:15.066Z,2.67
2019-04-28T22:06:43.466Z,2.75
2019-04-28T22:09:12.129Z,2.83
2019-04-28T22:11:40.563Z,2.95
2019-04-28T22:14:08.967Z,2.42
2019-04-28T22:16:37.379Z,2.00
2019-04-28T22:19:05.950Z,3.00
2019-04-28T22:21:34.356Z,2.45
2019-04-28T22:24:13.451Z,3.00
2019-04-28T22:26:55.552Z,2.75
2019-04-28T22:29:23.950Z,3.07
2019-04-28T22:31:52.355Z,3.00
2019-04-28T22:34:22.299Z,3.15
2019-04-28T22:36:51.629Z,2.00
2019-04-28T22:39:20.023Z,2.20
2019-04-28T22:41:48.420Z,3.35
2019-04-28T22:44:17.068Z,3.00
2019-04-28T22:46:45.510Z,3.50
2019-04-28T22:49:14.728Z,4.42
2019-04-28T22:51:43.143Z,2.42
2019-04-28T22:54:31.315Z,2.70
2019-04-28T22:57:16.673Z,2.67
2019-04-28T22:59:46.698Z,2.72
2019-04-28T23:02:19.232Z,2.80
2019-04-28T23:04:49.328Z,2.45
2019-04-28T23:07:18.063Z,2.33
2019-04-28T23:09:46.462Z,3.47
2019-04-28T23:12:14.877Z,2.10
2019-04-28T23:14:43.286Z,2.60
2019-04-28T23:17:13.318Z,3.05
2019-04-28T23:19:44.540Z,2.98
2019-04-28T23:24:48.410Z,2.60
2019-04-28T23:27:16.817Z,3.37
2019-04-28T23:29:45.217Z,3.17
2019-04-28T23:32:14.255Z,3.10
2019-04-28T23:34:42.655Z,3.02
2019-04-28T23:37:11.051Z,5.25
2019-04-28T23:39:39.461Z,3.55
2019-04-28T23:42:18.898Z,3.10
2019-04-28T23:44:47.305Z,3.05
2019-04-28T23:47:15.963Z,3.85
2019-04-28T23:49:44.378Z,3.85
2019-04-28T23:52:34.666Z,4.28
2019-04-28T23:55:07.496Z,3.35
2019-04-28T23:57:35.899Z,5.47
